Latest Coastal Weather Observations for Montague Island

IDN60701

Issued at 11:55 pm EST Friday 1 August 2014 (issued every 10 minutes, with the page automatically refreshed every 10 minutes)

About coastal observations | Map of coastal stations | Coastal observations for NSW | Marine services | Other Formats
Station Details ID: 069017 Name: MONTAGUE ISLAND LIGHTHOUSE Lat: -36.25 Lon: 150.23 Height: 52.0 m
Data from the previous 72 hours. | See also: Recent months at Montague Island
Date/Time
EST
Temp

°C
Wind Pressure Rain
since 9am
mm
Weather Cloud Vis
km
Sea
Height
m
Swell
Dir
 
Speed
knots
Gust
knots
hPa Trend Height
m
Period
s
Dir
01/11:30pm 10.5 W 16 20 1013.3 - 0.0 - - - - - - -
01/11:00pm 10.7 W 18 23 1012.9 - 0.0 - - - - - - -
01/10:30pm 10.5 W 14 17 1012.8 - 0.0 - - - - - - -
01/10:00pm 10.8 W 16 22 1012.2 - 0.0 - - - - - - -
01/09:30pm 10.8 W 14 18 1012.0 - 0.0 - - - - - - -
01/09:00pm 11.0 W 9 12 1011.5 - 0.0 - - - - - - -
01/08:30pm 10.9 W 12 15 1011.1 - 0.0 - - - - - - -
01/08:00pm 10.9 W 14 18 1010.5 - 0.0 - - - - - - -
01/07:30pm 11.1 WNW 13 18 1009.7 - 0.0 - - - - - - -
01/07:00pm 11.3 WNW 15 19 1009.4 - 0.0 - - - - - - -
01/06:30pm 11.6 WNW 18 24 1008.7 - 0.0 - - - - - - -
01/06:00pm 12.2 W 22 31 1007.8 - 0.0 - - - - - - -
01/05:30pm 12.9 W 18 25 1007.4 - 0.0 - - - - - - -
01/05:00pm 13.7 W 20 28 1006.6 - 0.0 - - - - - - -
01/04:30pm 14.4 W 20 27 1005.4 - 0.0 - - - - - - -
01/04:23pm 14.4 W 19 21 1005.2 - 0.0 - - - - - - -
01/04:11pm 14.6 W 30 41 1004.7 - 0.0 - - - - - - -
01/04:08pm 14.6 W 32 39 1004.6 - 0.0 - - - - - - -
01/04:05pm 14.7 W 20 34 1004.6 - 0.0 - - - - - - -
01/04:00pm 14.7 W 18 24 1004.7 - 0.0 - - - - - - -
01/03:30pm 15.5 W 18 27 1004.4 - 0.0 - - - - - - -
01/03:00pm 15.8 W 11 23 1004.1 - 0.0 - - - - - - -
01/02:30pm 16.3 W 12 18 1003.8 - 0.0 - - - - - - -
01/02:00pm 15.9 W 20 30 1003.5 - 0.0 - - - - - - -
01/01:46pm 15.9 W 19 31 1003.1 - 0.0 - - - - - - -
01/01:35pm 15.9 WNW 24 30 1003.1 - 0.0 - - - - - - -
01/01:30pm 16.3 W 12 20 1003.4 - 0.0 - - - - - - -
01/01:00pm 15.7 W 18 25 1003.1 - 0.0 - - - - - - -
01/12:33pm 15.2 W 24 34 1003.0 - 0.0 - - - - - - -
01/12:30pm 15.4 W 24 33 1003.2 - 0.0 - - - - - - -
01/12:00pm 15.1 W 21 36 1003.1 - 0.0 - - - - - - -
01/11:58am 15.3 W 18 36 1003.1 - 0.0 - - - - - - -
01/11:56am 15.4 W 15 25 1003.4 - 0.0 - - - - - - -
01/11:30am 15.2 WNW 18 25 1003.7 - 0.0 - - - - - - -
01/11:00am 15.1 WNW 10 18 1003.6 - 0.0 - - - - - - -
01/10:30am 14.2 WNW 11 20 1004.0 - 0.0 - - - - - - -
01/10:00am 13.9 W 14 23 1004.3 - 0.0 - - - - - - -
01/09:44am 13.3 W 15 31 1004.3 - 0.0 - - - - - - -
01/09:30am 13.4 WNW 14 20 1004.5 - 0.0 - - - - - - -
01/09:04am 13.3 WNW 15 28 1004.3 - 0.0 - - - - - - -
01/09:00am 13.2 WNW 13 18 1004.5 - 0.0 - - - - - - -
01/08:39am 12.9 W 25 36 1003.9 - 0.0 - - - - - - -
01/08:30am 12.9 W 25 31 1003.9 - 0.0 - - - - - - -
01/08:00am 12.9 WNW 20 26 1003.6 - 0.0 - - - - - - -
01/07:30am 12.8 WNW 24 30 1003.3 - 0.0 - - - - - - -
01/07:10am 12.9 WNW 20 31 1003.1 - 0.0 - - - - - - -
01/07:00am 12.7 W 18 22 1002.9 - 0.0 - - - - - - -
01/06:30am 12.5 W 19 25 1002.4 - 0.0 - - - - - - -
01/06:22am 11.1 W 16 22 1002.5 - 0.0 - - - - - - -
01/06:00am 10.9 SSE 6 10 1002.9 - 0.0 - - - - - - -
01/05:30am 11.2 SE 14 16 1002.8 - 0.0 - - - - - - -
01/05:00am 11.3 S 17 21 1002.9 - 0.0 - - - - - - -
01/04:30am 11.6 S 18 22 1001.9 - 0.0 - - - - - - -
01/04:00am 11.6 S 18 23 1001.5 - 0.0 - - - - - - -
01/03:30am 11.9 S 21 26 1001.3 - 0.0 - - - - - - -
01/03:00am 12.8 S 23 29 1001.2 - 0.0 - - - - - - -
01/02:30am 13.3 SSE 26 31 1000.0 - 0.0 - - - - - - -
01/02:00am 14.6 S 22 34 999.6 - 0.0 - - - - - - -
01/01:54am 15.4 S 19 34 999.2 - 0.0 - - - - - - -
01/01:30am 18.6 NNW 15 20 999.0 - 0.0 - - - - - - -
01/01:00am 18.5 N 18 24 998.8 - 0.0 - - - - - - -
01/12:30am 18.8 N 22 27 998.6 - 0.0 - - - - - - -
01/12:00am 18.9 N 21 27 998.6 - 0.0 - - - - - - -
 
Date/Time
EST
Temp

°C
Wind Pressure Rain
since 9am
mm
Weather Cloud Vis
km
Sea
Height
m
Swell
Dir
 
Speed
knots
Gust
knots
hPa Trend Height
m
Period
s
Dir
31/11:30pm 18.5 N 17 21 999.0 - 0.0 - - - - - - -
31/11:00pm 19.1 N 19 23 999.4 - 0.0 - - - - - - -
31/10:30pm 19.0 N 14 19 999.7 - 0.0 - - - - - - -
31/10:00pm 19.1 NNW 14 18 999.9 - 0.0 - - - - - - -
31/09:30pm 18.9 N 15 19 1000.0 - 0.0 - - - - - - -
31/09:00pm 19.4 N 16 21 999.9 - 0.0 - - - - - - -
31/08:30pm 19.3 N 18 26 999.7 - 0.0 - - - - - - -
31/08:20pm 19.3 N 19 34 999.5 - 0.0 - - - - - - -
31/08:00pm 19.1 N 19 23 999.7 - 0.0 - - - - - - -
31/07:30pm 19.3 N 22 31 999.2 - 0.0 - - - - - - -
31/07:00pm 19.4 N 26 31 998.8 - 0.0 - - - - - - -
31/06:30pm 19.4 N 26 32 998.6 - 0.0 - - - - - - -
31/06:00pm 19.5 N 29 36 998.1 - 0.0 - - - - - - -
31/05:30pm 19.6 N 32 40 997.8 - 0.0 - - - - - - -
31/05:00pm 19.8 N 33 40 997.6 - 0.0 - - - - - - -
31/04:30pm 20.2 N 29 38 997.6 - 0.0 - - - - - - -
31/04:09pm 20.3 N 29 40 997.7 - 0.0 - - - - - - -
31/04:00pm 20.3 N 28 36 997.9 - 0.0 - - - - - - -
31/03:30pm 20.6 N 27 34 998.0 - 0.0 - - - - - - -
31/03:00pm 21.3 N 27 35 998.3 - 0.0 - - - - - - -
31/02:41pm 21.4 N 26 38 998.5 - 0.0 - - - - - - -
31/02:30pm 21.3 N 22 29 998.9 - 0.0 - - - - - - -
31/02:00pm 21.4 N 25 32 999.3 - 0.0 - - - - - - -
31/01:49pm 21.7 N 24 34 999.5 - 0.0 - - - - - - -
31/01:30pm 21.4 N 23 32 999.7 - 0.0 - - - - - - -
31/01:00pm 21.2 N 25 31 1000.3 - 0.0 - - - - - - -
31/12:30pm 20.7 N 23 31 1001.2 - 0.0 - - - - - - -
31/12:00pm 20.7 N 23 30 1002.1 - 0.0 - - - - - - -
31/11:30am 20.3 N 22 27 1003.3 - 0.0 - - - - - - -
31/11:00am 18.9 NNE 23 31 1004.5 - 0.0 - - - - - - -
31/10:30am 18.8 NNE 25 30 1005.0 - 0.0 - - - - - - -
31/10:00am 18.3 N 20 28 1005.7 - 0.0 - - - - - - -
31/09:30am 18.1 N 23 28 1006.0 - 0.0 - - - - - - -
31/09:00am 17.6 N 22 27 1006.5 - 0.0 - - - - - - -
31/08:30am 17.5 N 22 27 1006.8 - 0.0 - - - - - - -
31/08:00am 17.1 N 21 26 1007.0 - 0.0 - - - - - - -
31/07:30am 16.9 N 20 25 1007.3 - 0.0 - - - - - - -
31/07:00am 16.4 N 13 21 1007.5 - 0.0 - - - - - - -
31/06:30am 16.2 N 16 22 1007.7 - 0.0 - - - - - - -
31/06:00am 16.0 NNW 13 18 1007.7 - 0.0 - - - - - - -
31/05:30am 15.0 NNW 8 12 1008.0 - 0.0 - - - - - - -
31/05:00am 15.6 NNW 11 15 1008.1 - 0.0 - - - - - - -
31/04:30am 15.8 NNW 11 15 1008.3 - 0.0 - - - - - - -
31/04:00am 16.1 N 13 20 1008.3 - 0.0 - - - - - - -
31/03:30am 16.4 N 15 19 1008.6 - 0.0 - - - - - - -
31/03:00am 16.5 N 16 20 1008.9 - 0.0 - - - - - - -
31/02:30am 16.6 N 14 18 1009.1 - 0.0 - - - - - - -
31/02:00am 16.8 NNW 13 19 1009.3 - 0.0 - - - - - - -
31/01:30am 16.5 N 14 18 1009.8 - 0.0 - - - - - - -
31/01:00am 16.7 NNW 14 19 1009.9 - 0.0 - - - - - - -
31/12:30am 16.7 N 14 18 1010.0 - 0.0 - - - - - - -
31/12:00am 17.3 N 16 21 1010.2 - 0.0 - - - - - - -
 
Date/Time
EST
Temp

°C
Wind Pressure Rain
since 9am
mm
Weather Cloud Vis
km
Sea
Height
m
Swell
Dir
 
Speed
knots
Gust
knots
hPa Trend Height
m
Period
s
Dir
30/11:30pm 16.8 N 16 21 1010.6 - 0.0 - - - - - - -
30/11:00pm 17.2 N 19 22 1010.8 - 0.0 - - - - - - -
30/10:30pm 16.8 N 17 20 1011.1 - 0.0 - - - - - - -
30/10:00pm 16.9 N 16 20 1011.3 - 0.0 - - - - - - -
30/09:30pm 16.9 NNW 14 19 1011.5 - 0.0 - - - - - - -
30/09:00pm 16.4 N 11 13 1012.0 - 0.0 - - - - - - -
30/08:30pm 17.6 NNW 13 17 1011.9 - 0.0 - - - - - - -
30/08:00pm 17.2 NNW 13 16 1012.1 - 0.0 - - - - - - -
30/07:30pm 17.7 NNW 9 13 1012.2 - 0.0 - - - - - - -
30/07:00pm 18.1 NW 7 9 1012.3 - 0.0 - - - - - - -
30/06:30pm 18.5 WNW 6 13 1012.1 - 0.0 - - - - - - -
30/06:00pm 18.7 W 18 22 1011.8 - 0.0 - - - - - - -
30/05:35pm 19.5 W 22 33 1011.1 - 0.0 - - - - - - -
30/05:30pm 19.4 W 20 29 1011.2 - 0.0 - - - - - - -
30/05:00pm 19.3 W 20 25 1010.9 - 0.0 - - - - - - -
30/04:30pm 20.3 W 28 38 1010.3 - 0.0 - - - - - - -
30/04:28pm 20.4 W 31 38 1010.2 - 0.0 - - - - - - -
30/04:19pm 20.3 W 19 30 1010.3 - 0.0 - - - - - - -
30/04:00pm 20.4 W 19 26 1010.2 - 0.0 - - - - - - -
30/03:30pm 20.9 W 21 29 1010.1 - 0.0 - - - - - - -
30/03:00pm 20.9 W 22 28 1010.0 - 0.0 - - - - - - -
30/02:43pm 21.3 W 17 29 1010.1 - 0.0 - - - - - - -
30/02:30pm 21.8 W 22 30 1010.2 - 0.0 - - - - - - -
30/02:23pm 22.1 W 18 28 1010.2 - 0.0 - - - - - - -
30/02:00pm 22.0 W 19 23 1010.2 - 0.0 - - - - - - -
30/01:30pm 21.7 SW 12 17 1010.5 - 0.0 - - - - - - -
30/01:00pm 19.4 NNE 9 17 1010.4 - 0.0 - - - - - - -
30/12:30pm 19.5 NNE 14 19 1010.8 - 0.0 - - - - - - -
30/12:00pm 19.2 NNE 16 19 1011.1 - 0.0 - - - - - - -
30/11:30am 20.0 N 15 20 1011.7 - 0.0 - - - - - - -
30/11:00am 19.3 N 12 17 1012.3 - 0.0 - - - - - - -
30/10:30am 18.6 N 13 17 1012.7 - 0.0 - - - - - - -
30/10:00am 18.0 N 9 13 1013.3 - 0.0 - - - - - - -
30/09:30am 17.0 N 13 16 1013.4 - 0.0 - - - - - - -
30/09:00am 16.7 N 13 16 1013.6 - 0.0 - - - - - - -
30/08:30am 16.2 NNW 14 17 1013.3 - 0.0 - - - - - - -
30/08:00am 16.2 NNW 16 20 1012.9 - 0.0 - - - - - - -
30/07:30am 15.9 NNW 15 18 1012.5 - 0.0 - - - - - - -
30/07:00am 15.7 NW 13 16 1012.3 - 0.0 - - - - - - -
30/06:30am 15.9 NW 16 21 1011.8 - 0.0 - - - - - - -
30/06:00am 16.4 NW 18 22 1011.4 - 0.0 - - - - - - -
30/05:30am 16.4 NNW 20 25 1011.2 - 0.0 - - - - - - -
30/05:00am 16.9 NNW 19 22 1011.1 - 0.0 - - - - - - -
30/04:30am 17.3 NNW 15 18 1011.1 - 0.0 - - - - - - -
30/04:00am 17.4 NNW 13 16 1011.0 - 0.0 - - - - - - -
30/03:30am 17.6 NNW 11 13 1011.0 - 0.0 - - - - - - -
30/03:00am 17.4 NNW 9 11 1011.0 - 0.0 - - - - - - -
30/02:30am 17.5 WNW 11 15 1010.9 - 0.0 - - - - - - -
30/02:00am 17.4 WNW 10 13 1010.7 - 0.0 - - - - - - -
30/01:30am 17.6 NW 13 18 1010.0 - 0.0 - - - - - - -
30/01:00am 18.3 NW 19 25 1009.4 - 0.0 - - - - - - -
30/12:30am 18.3 NW 18 27 1009.5 - 0.0 - - - - - - -
30/12:25am 17.9 NW 18 27 1009.6 - 0.0 - - - - - - -
30/12:00am 17.4 N 11 17 1010.3 - 0.0 - - - - - - -

Other Formats:

Comma delimited format used in spreadsheet applications
http://www.bom.gov.au/fwo/IDN60701/IDN60701.94939.axf

JavaScript Object Notation format (JSON) in row-major order
http://www.bom.gov.au/fwo/IDN60701/IDN60701.94939.json